Wetterdaten: Woche 25.11.13 - 01.12.13 (KW48)
Datum Zeit Temp. A. Feuchte A. Luftdruck Regen Wind Richtung Taupunkt Windchill Windben
25.11.2013 00:00 4,3 C 74 % 1012,8 hPa 0,0 l/m 12,2 km/h N 0,0 C -0,1 C 33,0 km/h
25.11.2013 01:00 4,0 C 75 % 1013,3 hPa 0,0 l/m 13,9 km/h N -0,1 C -1,5 C 35,4 km/h
25.11.2013 02:00 2,5 C 71 % 1014,5 hPa 0,0 l/m 18,3 km/h N -2,2 C -5,6 C 42,7 km/h
25.11.2013 03:00 1,4 C 66 % 1015,5 hPa 0,0 l/m 17,8 km/h N -4,2 C -6,8 C 43,5 km/h
25.11.2013 04:00 1,0 C 65 % 1016,3 hPa 0,0 l/m 18,4 km/h N -4,9 C -7,6 C 40,6 km/h
25.11.2013 05:00 0,7 C 63 % 1016,8 hPa 0,0 l/m 17,4 km/h N -5,7 C -7,5 C 40,6 km/h
25.11.2013 06:00 0,4 C 62 % 1017,0 hPa 0,0 l/m 17,9 km/h N -5,9 C -8,0 C 39,8 km/h
25.11.2013 07:00 0,6 C 64 % 1017,3 hPa 0,0 l/m 16,8 km/h N -5,4 C -7,3 C 35,8 km/h
25.11.2013 08:00 0,6 C 71 % 1017,8 hPa 0,0 l/m 19,7 km/h N -4,0 C -8,6 C 41,5 km/h
25.11.2013 09:00 0,0 C 81 % 1018,3 hPa 0,0 l/m 17,3 km/h N -2,9 C -8,2 C 38,3 km/h
25.11.2013 10:00 1,3 C 70 % 1018,4 hPa 0,0 l/m 16,7 km/h N -3,5 C -6,3 C 39,4 km/h
25.11.2013 11:00 2,0 C 66 % 1018,5 hPa 0,0 l/m 16,3 km/h N -3,7 C -5,2 C 38,2 km/h
25.11.2013 12:00 2,4 C 63 % 1018,6 hPa 0,0 l/m 16,9 km/h N -3,9 C -5,0 C 39,0 km/h
25.11.2013 13:00 2,5 C 63 % 1018,8 hPa 0,0 l/m 16,6 km/h N -3,7 C -4,8 C 38,2 km/h
25.11.2013 14:00 2,5 C 63 % 1019,3 hPa 0,0 l/m 15,8 km/h N -3,8 C -4,4 C 35,4 km/h
25.11.2013 15:00 2,3 C 65 % 1020,1 hPa 0,0 l/m 14,9 km/h N -3,6 C -4,2 C 38,2 km/h
25.11.2013 16:00 2,1 C 63 % 1020,5 hPa 0,0 l/m 16,5 km/h N -4,2 C -5,2 C 39,8 km/h
25.11.2013 17:00 2,1 C 63 % 1021,0 hPa 0,0 l/m 15,1 km/h N -4,2 C -4,5 C 32,2 km/h
25.11.2013 18:00 1,6 C 67 % 1021,4 hPa 0,0 l/m 13,5 km/h N -3,9 C -4,1 C 32,6 km/h
25.11.2013 19:00 1,3 C 73 % 1022,0 hPa 0,0 l/m 14,3 km/h N -3,0 C -4,9 C 32,6 km/h
25.11.2013 20:00 1,4 C 73 % 1022,7 hPa 0,0 l/m 15,5 km/h N -2,9 C -5,6 C 33,8 km/h
25.11.2013 21:00 1,3 C 72 % 1023,2 hPa 0,0 l/m 15,5 km/h N -3,1 C -5,7 C 35,8 km/h
25.11.2013 22:00 1,3 C 70 % 1023,4 hPa 0,0 l/m 15,1 km/h N -3,6 C -5,4 C 32,6 km/h
25.11.2013 23:00 1,2 C 67 % 1023,6 hPa 0,0 l/m 16,2 km/h N -4,3 C -6,2 C 35,8 km/h
26.11.2013 00:00 1,1 C 66 % 1023,5 hPa 0,0 l/m 14,6 km/h N -4,6 C -5,4 C 32,2 km/h
26.11.2013 01:00 0,7 C 66 % 1023,6 hPa 0,0 l/m 16,4 km/h N -4,8 C -6,8 C 35,8 km/h
26.11.2013 02:00 0,5 C 68 % 1024,2 hPa 0,0 l/m 14,4 km/h N -4,7 C -6,0 C 30,2 km/h
26.11.2013 03:00 0,3 C 70 % 1024,0 hPa 0,0 l/m 15,0 km/h N -4,6 C -6,6 C 31,0 km/h
26.11.2013 04:00 0,4 C 69 % 1024,2 hPa 0,0 l/m 14,7 km/h N -4,7 C -6,3 C 32,2 km/h
26.11.2013 05:00 0,3 C 69 % 1024,4 hPa 0,0 l/m 15,2 km/h N -4,7 C -6,7 C 35,0 km/h
26.11.2013 06:00 0,3 C 71 % 1024,8 hPa 0,0 l/m 11,5 km/h N -4,4 C -4,2 C 27,3 km/h
26.11.2013 07:00 0,2 C 72 % 1025,0 hPa 0,0 l/m 13,7 km/h N -4,2 C -5,9 C 28,5 km/h
26.11.2013 08:00 0,6 C 72 % 1025,3 hPa 0,0 l/m 15,3 km/h N -3,9 C -6,4 C 33,0 km/h
26.11.2013 09:00 0,9 C 73 % 1025,7 hPa 0,0 l/m 13,7 km/h N -3,4 C -5,1 C 30,6 km/h
26.11.2013 10:00 1,1 C 75 % 1025,8 hPa 0,0 l/m 14,7 km/h N -2,8 C -5,4 C 30,6 km/h
26.11.2013 11:00 0,6 C 82 % 1025,9 hPa 0,0 l/m 11,3 km/h N -2,0 C -3,7 C 27,3 km/h
26.11.2013 12:00 0,3 C 85 % 1025,8 hPa 0,0 l/m 7,6 km/h N -2,0 C -1,6 C 20,9 km/h
26.11.2013 13:00 0,2 C 85 % 1025,7 hPa 0,0 l/m 5,8 km/h N -2,0 C -0,4 C 17,3 km/h
26.11.2013 14:00 0,1 C 84 % 1025,6 hPa 0,3 l/m 11,6 km/h N -2,3 C -4,6 C 27,8 km/h
26.11.2013 15:00 0,1 C 84 % 1025,8 hPa 0,3 l/m 10,6 km/h N -2,3 C -3,8 C 24,9 km/h
26.11.2013 16:00 -0,1 C 84 % 1026,1 hPa 0,0 l/m 11,7 km/h N -2,5 C -4,9 C 25,7 km/h
26.11.2013 17:00 -0,2 C 85 % 1026,6 hPa 0,0 l/m 8,6 km/h N -2,5 C -2,5 C 23,7 km/h
26.11.2013 18:00 -0,2 C 86 % 1027,1 hPa 0,0 l/m 7,9 km/h N -2,3 C -1,7 C 21,7 km/h
26.11.2013 19:00 -0,0 C 86 % 1027,6 hPa 0,0 l/m 8,7 km/h N -2,1 C -2,3 C 24,9 km/h
26.11.2013 20:00 0,3 C 84 % 1027,9 hPa 0,0 l/m 9,5 km/h N -2,1 C -2,7 C 26,1 km/h
26.11.2013 21:00 0,3 C 83 % 1028,4 hPa 0,0 l/m 9,4 km/h N -2,2 C -2,5 C 25,7 km/h
26.11.2013 22:00 0,4 C 82 % 1028,4 hPa 0,0 l/m 8,5 km/h N -2,3 C -1,7 C 22,5 km/h
26.11.2013 23:00 0,4 C 80 % 1028,4 hPa 0,0 l/m 8,5 km/h N -2,5 C -1,6 C 23,3 km/h
27.11.2013 00:00 0,5 C 75 % 1028,6 hPa 0,0 l/m 8,4 km/h N -3,4 C -1,4 C 21,7 km/h
27.11.2013 01:00 0,4 C 72 % 1029,0 hPa 0,0 l/m 6,8 km/h N -4,0 C -0,1 C 19,3 km/h
27.11.2013 02:00 0,6 C 74 % 1029,4 hPa 0,0 l/m 6,8 km/h N -3,6 C -0,1 C 19,3 km/h
27.11.2013 03:00 0,3 C 74 % 1029,6 hPa 0,0 l/m 7,4 km/h N -3,7 C -0,8 C 22,9 km/h
27.11.2013 04:00 0,3 C 74 % 1029,7 hPa 0,0 l/m 9,3 km/h N -3,9 C -2,5 C 24,5 km/h
27.11.2013 05:00 -0,2 C 74 % 1029,9 hPa 0,0 l/m 7,4 km/h N -4,2 C -1,3 C 23,7 km/h
27.11.2013 06:00 -0,1 C 76 % 1030,2 hPa 0,0 l/m 7,0 km/h N -3,9 C -0,8 C 19,7 km/h
27.11.2013 07:00 -0,3 C 77 % 1030,9 hPa 0,0 l/m 7,9 km/h N -3,8 C -1,9 C 23,7 km/h
27.11.2013 08:00 0,1 C 75 % 1031,2 hPa 0,0 l/m 11,6 km/h N -3,8 C -4,5 C 28,2 km/h
27.11.2013 09:00 0,7 C 73 % 1031,4 hPa 0,0 l/m 11,0 km/h N -3,6 C -3,4 C 27,8 km/h
27.11.2013 10:00 1,1 C 71 % 1031,9 hPa 0,0 l/m 11,1 km/h N -3,5 C -3,0 C 28,6 km/h
27.11.2013 11:00 1,7 C 69 % 1031,6 hPa 0,0 l/m 12,5 km/h N -3,4 C -3,2 C 28,6 km/h
27.11.2013 12:00 2,1 C 67 % 1031,4 hPa 0,0 l/m 12,1 km/h N -3,3 C -2,7 C 29,8 km/h
27.11.2013 13:00 2,4 C 68 % 1031,1 hPa 0,0 l/m 12,2 km/h N -3,0 C -2,3 C 27,4 km/h
27.11.2013 14:00 2,2 C 69 % 1031,1 hPa 0,0 l/m 11,2 km/h N -2,9 C -1,9 C 25,8 km/h
27.11.2013 15:00 1,6 C 70 % 1031,2 hPa 0,0 l/m 10,6 km/h N -3,3 C -2,1 C 23,7 km/h
27.11.2013 16:00 0,8 C 71 % 1031,4 hPa 0,0 l/m 9,9 km/h N -3,9 C -2,5 C 22,5 km/h
27.11.2013 17:00 0,5 C 72 % 1032,0 hPa 0,0 l/m 9,0 km/h N -4,0 C -2,0 C 21,7 km/h
27.11.2013 18:00 0,2 C 73 % 1032,3 hPa 0,0 l/m 7,4 km/h N -4,2 C -1,0 C 18,9 km/h
27.11.2013 19:00 -0,2 C 72 % 1032,6 hPa 0,0 l/m 5,6 km/h N -4,6 C -0,3 C 18,5 km/h
27.11.2013 20:00 -0,6 C 70 % 1032,5 hPa 0,0 l/m 3,7 km/h N -5,3 C -0,6 C 10,9 km/h
27.11.2013 21:00 -0,6 C 69 % 1032,4 hPa 0,0 l/m 4,9 km/h N -5,6 C -0,6 C 14,5 km/h
27.11.2013 22:00 -0,7 C 69 % 1032,6 hPa 0,0 l/m 2,9 km/h N -5,8 C -0,7 C 11,3 km/h
27.11.2013 23:00 -1,4 C 70 % 1032,4 hPa 0,0 l/m 1,8 km/h N -6,1 C -1,4 C 8,4 km/h
28.11.2013 00:00 -2,3 C 72 % 1032,2 hPa 0,0 l/m 0,1 km/h N -6,6 C -2,3 C 3,2 km/h
28.11.2013 01:00 -2,6 C 75 % 1031,8 hPa 0,0 l/m 0,7 km/h N -6,4 C -2,6 C 5,2 km/h
28.11.2013 02:00 -1,4 C 71 % 1031,4 hPa 0,0 l/m 4,0 km/h N -6,0 C -1,4 C 10,5 km/h
28.11.2013 03:00 -1,4 C 70 % 1031,3 hPa 0,0 l/m 2,0 km/h N -6,1 C -1,4 C 11,3 km/h
28.11.2013 04:00 -1,6 C 70 % 1030,9 hPa 0,0 l/m 1,5 km/h N -6,4 C -1,6 C 13,3 km/h
28.11.2013 05:00 -1,4 C 69 % 1030,6 hPa 0,0 l/m 1,1 km/h N -6,4 C -1,4 C 10,1 km/h
28.11.2013 06:00 -1,3 C 66 % 1030,4 hPa 0,0 l/m 1,3 km/h N -6,8 C -1,3 C 10,1 km/h
28.11.2013 07:00 -0,8 C 62 % 1030,2 hPa 0,0 l/m 3,9 km/h N -7,3 C -0,9 C 12,4 km/h
28.11.2013 08:00 -0,9 C 62 % 1030,3 hPa 0,0 l/m 0,5 km/h N -7,2 C -0,9 C 3,6 km/h
28.11.2013 09:00 1,5 C 53 % 1030,0 hPa 0,0 l/m 2,2 km/h N -6,9 C 1,5 C 11,3 km/h
28.11.2013 10:00 3,2 C 46 % 1029,6 hPa 0,0 l/m 6,0 km/h N -7,4 C 2,8 C 16,9 km/h
28.11.2013 11:00 4,4 C 41 % 1028,7 hPa 0,0 l/m 8,1 km/h N -7,6 C 3,1 C 21,7 km/h
28.11.2013 12:00 3,9 C 42 % 1028,0 hPa 0,0 l/m 6,8 km/h N -7,8 C 3,0 C 18,9 km/h
28.11.2013 13:00 3,4 C 45 % 1027,8 hPa 0,0 l/m 8,0 km/h N -7,4 C 1,9 C 20,1 km/h
28.11.2013 14:00 2,5 C 54 % 1027,1 hPa 0,0 l/m 8,1 km/h N -5,9 C 1,1 C 24,1 km/h
28.11.2013 15:00 2,1 C 67 % 1026,4 hPa 0,0 l/m 12,8 km/h N -3,4 C -3,1 C 28,2 km/h
28.11.2013 16:00 2,1 C 69 % 1026,4 hPa 0,0 l/m 14,0 km/h N -3,1 C -3,8 C 35,8 km/h
28.11.2013 17:00 2,0 C 70 % 1026,7 hPa 0,0 l/m 13,9 km/h N -2,9 C -3,8 C 34,2 km/h
28.11.2013 18:00 1,7 C 72 % 1026,8 hPa 0,0 l/m 9,4 km/h N -2,9 C -1,0 C 25,7 km/h
28.11.2013 19:00 1,3 C 74 % 1026,5 hPa 0,0 l/m 9,1 km/h N -2,8 C -1,2 C 27,4 km/h
28.11.2013 20:00 1,9 C 72 % 1026,5 hPa 0,0 l/m 11,4 km/h N -2,6 C -2,4 C 28,2 km/h
28.11.2013 21:00 2,0 C 71 % 1026,4 hPa 0,0 l/m 9,1 km/h N -2,6 C -0,4 C 26,5 km/h
28.11.2013 22:00 2,2 C 72 % 1026,3 hPa 0,0 l/m 12,7 km/h N -2,3 C -2,9 C 30,6 km/h
28.11.2013 23:00 2,4 C 73 % 1026,1 hPa 0,0 l/m 13,5 km/h N -2,0 C -3,3 C 34,2 km/h
29.11.2013 00:00 2,7 C 71 % 1025,9 hPa 0,0 l/m 15,6 km/h N -2,0 C -4,1 C 33,8 km/h
29.11.2013 01:00 2,8 C 71 % 1025,6 hPa 0,0 l/m 9,9 km/h N -1,9 C -0,3 C 29,0 km/h
29.11.2013 02:00 2,8 C 71 % 1025,5 hPa 0,0 l/m 12,1 km/h N -1,9 C -1,7 C 31,4 km/h
29.11.2013 03:00 3,0 C 71 % 1025,6 hPa 0,0 l/m 14,6 km/h N -1,8 C -3,1 C 30,6 km/h
29.11.2013 04:00 3,1 C 71 % 1025,8 hPa 0,0 l/m 13,5 km/h N -1,6 C -2,3 C 29,8 km/h
29.11.2013 05:00 3,0 C 72 % 1025,7 hPa 0,0 l/m 14,6 km/h N -1,5 C -3,0 C 30,6 km/h
29.11.2013 06:00 3,3 C 72 % 1025,7 hPa 0,0 l/m 11,9 km/h N -1,3 C -1,1 C 29,8 km/h
29.11.2013 07:00 3,4 C 72 % 1025,5 hPa 0,0 l/m 8,4 km/h N -1,2 C 1,6 C 25,4 km/h
29.11.2013 08:00 3,7 C 70 % 1025,6 hPa 0,0 l/m 10,1 km/h N -1,2 C 0,7 C 24,9 km/h
29.11.2013 09:00 4,0 C 69 % 1025,6 hPa 0,0 l/m 9,3 km/h N -1,2 C 1,5 C 24,1 km/h
29.11.2013 10:00 4,2 C 70 % 1025,5 hPa 0,0 l/m 7,8 km/h N -0,7 C 3,0 C 20,5 km/h
29.11.2013 11:00 4,5 C 70 % 1024,7 hPa 0,0 l/m 9,7 km/h N -0,6 C 1,8 C 24,9 km/h
29.11.2013 12:00 5,1 C 68 % 1023,6 hPa 0,0 l/m 9,0 km/h N -0,4 C 2,9 C 25,7 km/h
29.11.2013 13:00 5,4 C 67 % 1022,8 hPa 0,0 l/m 7,2 km/h N -0,2 C 4,7 C 19,7 km/h
29.11.2013 14:00 5,1 C 69 % 1022,1 hPa 0,0 l/m 7,0 km/h N -0,1 C 4,3 C 20,5 km/h
29.11.2013 15:00 4,6 C 71 % 1021,3 hPa 0,0 l/m 6,0 km/h N -0,2 C 4,3 C 20,1 km/h
29.11.2013 16:00 4,5 C 71 % 1020,8 hPa 0,0 l/m 3,5 km/h N -0,3 C 4,5 C 14,5 km/h
29.11.2013 17:00 4,3 C 72 % 1020,1 hPa 0,0 l/m 4,6 km/h N -0,3 C 4,2 C 12,9 km/h
29.11.2013 18:00 3,8 C 73 % 1019,3 hPa 0,0 l/m 0,3 km/h N -0,7 C 3,8 C 3,6 km/h
29.11.2013 19:00 3,3 C 74 % 1018,8 hPa 0,0 l/m 1,2 km/h N -0,9 C 3,3 C 4,0 km/h
29.11.2013 20:00 2,7 C 77 % 1018,4 hPa 0,0 l/m 0,5 km/h N -0,9 C 2,7 C 3,2 km/h
29.11.2013 21:00 2,4 C 79 % 1017,8 hPa 0,0 l/m 0,4 km/h N -0,9 C 2,4 C 4,0 km/h
29.11.2013 22:00 3,5 C 72 % 1016,6 hPa 0,0 l/m 2,4 km/h N -1,1 C 3,5 C 8,4 km/h
29.11.2013 23:00 4,3 C 67 % 1015,8 hPa 0,0 l/m 2,3 km/h N -1,2 C 4,3 C 10,1 km/h
30.11.2013 00:00 4,2 C 68 % 1014,8 hPa 0,0 l/m 2,0 km/h N -1,2 C 4,2 C 8,0 km/h
30.11.2013 01:00 3,2 C 73 % 1014,3 hPa 0,0 l/m 0,6 km/h N -1,2 C 3,2 C 4,4 km/h
30.11.2013 02:00 3,0 C 75 % 1014,2 hPa 0,0 l/m 0,5 km/h N -1,1 C 3,0 C 4,0 km/h
30.11.2013 03:00 3,3 C 74 % 1013,7 hPa 0,0 l/m 0,7 km/h N -0,9 C 3,3 C 6,0 km/h
30.11.2013 04:00 3,3 C 73 % 1013,4 hPa 0,0 l/m 2,8 km/h N -1,2 C 3,3 C 10,5 km/h
30.11.2013 05:00 3,0 C 74 % 1013,7 hPa 0,0 l/m 3,3 km/h N -1,2 C 3,0 C 10,1 km/h
30.11.2013 06:00 3,0 C 77 % 1014,4 hPa 0,0 l/m 2,0 km/h N -0,7 C 3,0 C 9,6 km/h
30.11.2013 07:00 4,5 C 77 % 1015,1 hPa 0,0 l/m 3,1 km/h N 0,7 C 4,5 C 9,7 km/h
30.11.2013 08:00 4,7 C 75 % 1016,0 hPa 0,0 l/m 5,4 km/h N 0,7 C 4,7 C 15,3 km/h
30.11.2013 09:00 5,2 C 74 % 1016,8 hPa 0,0 l/m 8,4 km/h N 0,9 C 3,5 C 23,7 km/h
30.11.2013 10:00 5,6 C 72 % 1017,5 hPa 0,0 l/m 10,3 km/h N 0,9 C 2,6 C 24,1 km/h
30.11.2013 11:00 5,7 C 72 % 1018,0 hPa 0,0 l/m 10,0 km/h N 1,0 C 2,9 C 24,5 km/h
30.11.2013 12:00 5,8 C 69 % 1018,2 hPa 0,0 l/m 10,6 km/h N 0,5 C 2,6 C 26,1 km/h
30.11.2013 13:00 6,0 C 67 % 1018,6 hPa 0,0 l/m 13,9 km/h N 0,2 C 0,9 C 30,6 km/h
30.11.2013 14:00 5,8 C 65 % 1019,0 hPa 0,0 l/m 11,5 km/h N -0,3 C 1,9 C 26,5 km/h
30.11.2013 15:00 5,4 C 64 % 1019,8 hPa 0,0 l/m 7,0 km/h N -0,9 C 4,7 C 21,7 km/h
30.11.2013 16:00 4,9 C 65 % 1020,9 hPa 0,0 l/m 9,6 km/h N -1,1 C 2,3 C 24,5 km/h
30.11.2013 17:00 4,6 C 70 % 1022,1 hPa 0,0 l/m 7,8 km/h N -0,5 C 2,9 C 21,3 km/h
30.11.2013 18:00 4,3 C 69 % 1022,8 hPa 0,0 l/m 6,0 km/h N -0,9 C 3,8 C 16,9 km/h
30.11.2013 19:00 4,4 C 69 % 1023,3 hPa 0,0 l/m 6,4 km/h N -0,8 C 4,3 C 20,9 km/h
30.11.2013 20:00 4,5 C 69 % 1023,9 hPa 0,0 l/m 7,5 km/h N -0,6 C 3,6 C 21,7 km/h
30.11.2013 21:00 4,2 C 71 % 1024,4 hPa 0,0 l/m 7,6 km/h N -0,6 C 3,2 C 19,3 km/h
30.11.2013 22:00 4,2 C 71 % 1024,8 hPa 0,0 l/m 8,0 km/h N -0,6 C 2,7 C 20,1 km/h
30.11.2013 23:00 4,6 C 71 % 1025,3 hPa 0,0 l/m 9,6 km/h N -0,3 C 1,9 C 26,5 km/h
01.12.2013 00:00 4,8 C 68 % 1025,3 hPa 0,0 l/m 10,0 km/h N -0,6 C 1,8 C 22,5 km/h
01.12.2013 01:00 4,9 C 67 % 1025,5 hPa 0,0 l/m 8,3 km/h N -0,7 C 3,3 C 22,9 km/h
01.12.2013 02:00 4,9 C 67 % 1025,9 hPa 0,0 l/m 7,7 km/h N -0,7 C 3,8 C 21,3 km/h
01.12.2013 03:00 4,9 C 66 % 1026,0 hPa 0,0 l/m 7,8 km/h N -0,9 C 3,7 C 22,5 km/h
01.12.2013 04:00 4,9 C 67 % 1026,3 hPa 0,0 l/m 7,3 km/h N -0,8 C 4,1 C 19,3 km/h
01.12.2013 05:00 4,8 C 68 % 1026,6 hPa 0,0 l/m 8,1 km/h N -0,6 C 3,4 C 19,7 km/h
01.12.2013 06:00 4,7 C 69 % 1026,9 hPa 0,0 l/m 6,1 km/h N -0,4 C 4,4 C 16,5 km/h
01.12.2013 07:00 4,6 C 70 % 1027,3 hPa 0,0 l/m 5,5 km/h N -0,4 C 4,6 C 15,3 km/h
01.12.2013 08:00 4,4 C 70 % 1027,9 hPa 0,0 l/m 4,9 km/h N -0,6 C 4,4 C 14,5 km/h
01.12.2013 09:00 5,0 C 69 % 1028,1 hPa 0,0 l/m 6,2 km/h N -0,3 C 4,7 C 17,7 km/h
01.12.2013 10:00 6,2 C 66 % 1028,1 hPa 0,0 l/m 7,3 km/h N 0,2 C 5,4 C 19,3 km/h
01.12.2013 11:00 6,6 C 64 % 1027,8 hPa 0,0 l/m 8,0 km/h N 0,2 C 5,3 C 22,1 km/h
01.12.2013 12:00 7,1 C 61 % 1027,2 hPa 0,0 l/m 8,1 km/h N 0,1 C 5,7 C 19,7 km/h
01.12.2013 13:00 7,1 C 61 % 1026,8 hPa 0,0 l/m 7,5 km/h N 0,0 C 5,8 C 19,7 km/h
01.12.2013 14:00 6,9 C 60 % 1026,6 hPa 0,0 l/m 5,3 km/h N -0,2 C 6,9 C 14,5 km/h
01.12.2013 15:00 6,3 C 60 % 1026,6 hPa 0,0 l/m 5,3 km/h N -0,9 C 6,3 C 17,3 km/h
01.12.2013 16:00 5,2 C 63 % 1026,8 hPa 0,0 l/m 2,6 km/h N -1,2 C 5,2 C 7,6 km/h
01.12.2013 17:00 4,1 C 67 % 1027,1 hPa 0,0 l/m 4,4 km/h N -1,4 C 4,1 C 13,7 km/h
01.12.2013 18:00 3,9 C 69 % 1027,6 hPa 0,0 l/m 5,8 km/h N -1,2 C 3,9 C 16,1 km/h
01.12.2013 19:00 3,5 C 73 % 1027,7 hPa 0,0 l/m 3,8 km/h N -0,9 C 3,5 C 18,1 km/h
01.12.2013 20:00 2,8 C 77 % 1027,9 hPa 0,0 l/m 2,0 km/h N -0,9 C 2,8 C 10,5 km/h
01.12.2013 21:00 3,0 C 76 % 1028,4 hPa 0,0 l/m 6,5 km/h N -0,9 C 2,0 C 15,7 km/h
01.12.2013 22:00 3,3 C 73 % 1028,6 hPa 0,0 l/m 10,4 km/h N -1,0 C 0,2 C 27,8 km/h
01.12.2013 23:00 4,1 C 69 % 1028,4 hPa 0,0 l/m 9,1 km/h N -1,2 C 1,8 C 26,9 km/h
Min-Datum _ 28.11.13 28.11.13 25.11.13 - 28.11.13 - 28.11.13 25.11.13 29.11.13
_ Min-Zeit 01:15 11:30 00:15 - 00:15 - 11:45 09:15 20:45
Minimum _ -2,9 C 40 % 1012,7 hPa - 0,0 km/h - -8,1 C -9,7 C 0,0 km/h
Max-Datum _ 01.12.13 26.11.13 27.11.13 26.11.13 25.11.13 - 30.11.13 01.12.13 25.11.13
_ Max-Zeit 12:30 12:45 19:15 14:15 08:45 - 11:15 13:45 02:00
Maximum _ 7,2 C 86 % 1032,6 hPa 0,3 l/m 20,2 km/h
N
- 1,2 C 7,2 C 53,1 km/h
N
Durchschnitt _ 2,4 C 70 % 1024,7 hPa #0,5 l/m 9,1 km/h N -2,6 C -0,5 C 23,1 km/h